This is the latest recevied weather packets stored in our database for station/object KD7DVD-1. If no packets are shown the sender has not sent any weather packets the latest 10 day(s).
| Time | Temp. | Humidity | Pressure | Rain* | Wind** | Luminosity | Snow |
|---|---|---|---|---|---|---|---|
| 1777449616 | 10.56° C | 84% | 1024.5 hPa | 0 mm | - | - | - |
| 1777447816 | 10.56° C | 85% | 1024.2 hPa | 0 mm | - | - | - |
| 1777446016 | 10.56° C | 84% | 1024.2 hPa | 0 mm | - | - | - |
| 1777444217 | 10.56° C | 85% | 1024 hPa | 0 mm | - | - | - |
| 1777442417 | 10.56° C | 84% | 1024 hPa | 0 mm | - | - | - |
| 1777440617 | 10.56° C | 83% | 1023.8 hPa | 0 mm | - | - | - |
| 1777438817 | 10.56° C | 81% | 1023.7 hPa | 0 mm | - | - | - |
| 1777437017 | 11.11° C | 80% | 1023.6 hPa | 0 mm | - | - | - |
| 1777435217 | 11.67° C | 77% | 1023.4 hPa | 0 mm | - | - | - |
| 1777433416 | 12.22° C | 74% | 1023.3 hPa | 0 mm | - | - | - |
| 1777431617 | 12.78° C | 72% | 1023.1 hPa | 0 mm | - | - | - |
| 1777429817 | 12.78° C | 70% | 1023 hPa | 0 mm | - | - | - |
| 1777428016 | 13.33° C | 68% | 1023 hPa | 0 mm | - | - | - |
| 1777426216 | 13.89° C | 67% | 1023 hPa | 0 mm | - | - | - |
| 1777424416 | 13.89° C | 65% | 1023 hPa | 0 mm | - | - | - |
| 1777422616 | 13.89° C | 65% | 1022.9 hPa | 0 mm | - | - | - |
| 1777420816 | 14.44° C | 64% | 1022.7 hPa | 0 mm | - | - | - |
| 1777419016 | 15° C | 62% | 1022.7 hPa | 0 mm | - | - | - |
| 1777417216 | 15° C | 63% | 1022.6 hPa | 0 mm | - | - | - |
| 1777415415 | 14.44° C | 65% | 1022.6 hPa | 0 mm | - | - | - |
| 1777413616 | 15.56° C | 63% | 1022.7 hPa | 0 mm | - | - | - |
| 1777411816 | 14.44° C | 65% | 1022.8 hPa | 0 mm | - | - | - |
| 1777410016 | 13.33° C | 70% | 1023.1 hPa | 0 mm | - | - | - |
| 1777408215 | 13.33° C | 70% | 1023 hPa | 0 mm | - | - | - |
| 1777406415 | 13.33° C | 72% | 1023 hPa | 0 mm | - | - | - |
* Rain latest hour (hover to see other rain measurements)
** Current wind speed in m/s (hover to see current wind gust speed)